createdAt,value
2023-01-19T00:03:37.162Z,84.01
2023-01-19T00:08:39.116Z,83.96
2023-01-19T00:13:50.459Z,83.79
2023-01-19T00:18:52.825Z,84.05
2023-01-19T00:23:54.615Z,84.39
2023-01-19T00:28:56.388Z,84.54
2023-01-19T00:33:59.997Z,84.31
2023-01-19T00:39:01.990Z,84.49
2023-01-19T00:44:03.733Z,84.24
2023-01-19T00:49:05.825Z,84.24
2023-01-19T00:54:10.205Z,84.09
2023-01-19T00:59:11.974Z,84.02
2023-01-19T01:04:14.238Z,84.10
2023-01-19T01:09:15.890Z,84.22
2023-01-19T01:14:18.213Z,84.57
2023-01-19T01:19:20.565Z,84.39
2023-01-19T01:24:22.715Z,84.14
2023-01-19T01:29:24.328Z,84.34
2023-01-19T01:34:26.042Z,84.37
2023-01-19T01:39:27.866Z,84.45
2023-01-19T01:44:55.890Z,84.02
2023-01-19T01:50:04.392Z,84.14
2023-01-19T01:55:07.617Z,84.14
2023-01-19T02:00:10.951Z,84.39
2023-01-19T02:05:16.123Z,83.92
2023-01-19T02:10:37.489Z,84.38
2023-01-19T02:15:39.206Z,84.48
2023-01-19T02:20:45.187Z,84.20
2023-01-19T02:25:48.737Z,84.18
2023-01-19T02:30:50.385Z,84.86
2023-01-19T02:35:53.588Z,84.37
2023-01-19T02:40:57.861Z,84.38
2023-01-19T02:45:59.624Z,84.85
2023-01-19T02:51:04.656Z,84.96
2023-01-19T02:56:12.007Z,84.55
2023-01-19T03:01:57.493Z,84.97
2023-01-19T03:07:13.295Z,84.70
2023-01-19T03:12:38.329Z,84.52
2023-01-19T03:17:41.767Z,84.81
2023-01-19T03:22:45.789Z,84.53
2023-01-19T03:27:53.732Z,85.00
2023-01-19T03:33:01.400Z,84.67
2023-01-19T03:38:09.680Z,84.86
2023-01-19T03:43:12.312Z,85.00
2023-01-19T03:48:14.206Z,84.86
2023-01-19T03:53:17.564Z,84.85
2023-01-19T03:58:19.296Z,84.62
2023-01-19T04:03:21.188Z,84.49
2023-01-19T04:08:22.818Z,84.52
2023-01-19T04:13:24.619Z,84.47
2023-01-19T04:18:26.816Z,84.22
2023-01-19T04:23:28.807Z,84.01
2023-01-19T04:28:30.946Z,83.93
2023-01-19T04:33:33.535Z,83.78
2023-01-19T04:38:36.025Z,84.29
2023-01-19T04:43:38.407Z,84.32
2023-01-19T04:48:41.391Z,84.11
2023-01-19T04:53:43.899Z,84.14
2023-01-19T04:58:45.894Z,84.01
2023-01-19T05:03:47.584Z,84.40
2023-01-19T05:08:49.247Z,84.18
2023-01-19T05:13:51.591Z,83.98
2023-01-19T05:18:53.287Z,83.99
2023-01-19T05:23:55.053Z,84.28
2023-01-19T05:28:56.808Z,84.28
2023-01-19T05:33:58.657Z,84.74
2023-01-19T05:39:00.461Z,84.54
2023-01-19T05:44:02.439Z,84.54
2023-01-19T05:49:05.090Z,84.30
2023-01-19T05:54:08.135Z,84.67
2023-01-19T05:59:10.607Z,84.50
2023-01-19T06:04:12.258Z,84.22
2023-01-19T06:09:13.970Z,84.45
2023-01-19T06:14:15.928Z,84.29
2023-01-19T06:19:17.726Z,84.71
2023-01-19T06:24:19.697Z,84.54
2023-01-19T06:29:22.089Z,84.84
2023-01-19T06:34:28.666Z,84.86
2023-01-19T06:39:30.271Z,84.64
2023-01-19T06:44:31.911Z,84.61
2023-01-19T06:49:33.545Z,84.74
2023-01-19T06:54:35.231Z,84.59
2023-01-19T06:59:36.922Z,84.87
2023-01-19T07:04:38.551Z,84.58
2023-01-19T07:09:40.308Z,84.53
2023-01-19T07:14:42.051Z,84.35
2023-01-19T07:19:43.726Z,84.12
2023-01-19T07:24:45.487Z,83.99
2023-01-19T07:29:47.159Z,84.11
2023-01-19T07:34:48.820Z,84.00
2023-01-19T07:39:50.552Z,83.88
2023-01-19T07:44:52.568Z,83.73
2023-01-19T07:49:54.272Z,83.45
2023-01-19T07:54:55.925Z,83.35
2023-01-19T07:59:58.022Z,82.93
2023-01-19T08:04:59.739Z,82.82
2023-01-19T08:10:01.475Z,82.34
2023-01-19T08:15:03.567Z,82.16
2023-01-19T08:20:06.684Z,81.58
2023-01-19T08:25:09.016Z,81.50
2023-01-19T08:30:11.393Z,80.92
2023-01-19T08:35:13.211Z,80.59
2023-01-19T08:40:14.993Z,80.71
2023-01-19T08:45:16.820Z,80.78
2023-01-19T08:50:18.640Z,80.97
2023-01-19T08:55:20.365Z,81.06
2023-01-19T09:00:22.859Z,81.05
2023-01-19T09:05:24.523Z,81.16
2023-01-19T09:10:26.563Z,81.03
2023-01-19T09:15:28.259Z,80.89
2023-01-19T09:20:34.708Z,80.70
2023-01-19T09:25:38.245Z,80.32
2023-01-19T09:30:42.147Z,79.87
2023-01-19T09:35:46.111Z,79.96
2023-01-19T09:40:59.624Z,79.99
2023-01-19T09:46:04.070Z,79.89
2023-01-19T09:51:12.002Z,79.78
2023-01-19T09:56:16.819Z,80.03
2023-01-19T10:01:21.574Z,79.99
2023-01-19T10:06:23.496Z,79.84
2023-01-19T10:11:51.301Z,79.86
2023-01-19T10:17:28.420Z,79.71
2023-01-19T10:22:30.187Z,79.77
2023-01-19T10:27:34.474Z,79.82
2023-01-19T10:32:36.994Z,79.86
2023-01-19T10:37:40.621Z,79.66
2023-01-19T10:42:42.651Z,79.99
2023-01-19T10:47:46.459Z,80.01
2023-01-19T10:52:53.831Z,80.00
2023-01-19T10:57:56.735Z,80.40
2023-01-19T11:02:59.134Z,80.15
2023-01-19T11:08:12.110Z,79.88
2023-01-19T11:13:15.802Z,80.16
2023-01-19T11:18:28.841Z,79.73
2023-01-19T11:23:42.931Z,79.31
2023-01-19T11:28:51.291Z,79.15
2023-01-19T11:33:56.746Z,79.08
2023-01-19T11:39:21.286Z,78.60
2023-01-19T11:44:39.200Z,78.22
2023-01-19T11:49:53.401Z,78.19
2023-01-19T11:55:01.602Z,78.05
2023-01-19T12:00:17.594Z,78.05
2023-01-19T12:05:20.332Z,77.98
2023-01-19T12:10:30.654Z,77.40
2023-01-19T12:15:38.894Z,77.56
2023-01-19T12:20:46.585Z,77.29
2023-01-19T12:26:04.449Z,77.59
2023-01-19T12:31:06.509Z,77.78
2023-01-19T12:36:17.454Z,77.59
2023-01-19T12:41:27.809Z,77.55
2023-01-19T12:46:31.193Z,78.10
2023-01-19T12:51:33.337Z,78.25
2023-01-19T12:56:38.013Z,78.07
2023-01-19T13:01:39.713Z,78.23
2023-01-19T13:06:47.975Z,78.53
2023-01-19T13:12:11.833Z,78.28
2023-01-19T13:17:28.430Z,78.30
2023-01-19T13:22:50.098Z,77.74
2023-01-19T13:27:51.694Z,77.70
2023-01-19T13:32:57.576Z,77.76
2023-01-19T13:38:00.406Z,77.61
2023-01-19T13:43:03.592Z,77.73
2023-01-19T13:48:06.765Z,78.00
2023-01-19T13:53:19.076Z,78.28
2023-01-19T13:58:23.428Z,78.13
2023-01-19T14:03:26.826Z,78.20
2023-01-19T14:08:28.856Z,78.15
2023-01-19T14:13:37.446Z,78.01
2023-01-19T14:18:39.150Z,76.78
2023-01-19T14:23:55.795Z,76.73
2023-01-19T14:28:57.481Z,76.95
2023-01-19T14:33:59.423Z,77.05
2023-01-19T14:39:03.126Z,77.33
2023-01-19T14:44:10.494Z,77.52
2023-01-19T14:49:31.397Z,77.27
2023-01-19T14:54:40.548Z,77.25
2023-01-19T14:59:46.909Z,77.36
2023-01-19T15:04:48.581Z,77.11
2023-01-19T15:09:51.257Z,77.23
2023-01-19T15:14:53.223Z,77.37
2023-01-19T15:19:56.525Z,77.42
2023-01-19T15:25:00.048Z,77.20
2023-01-19T15:30:01.905Z,77.22
2023-01-19T15:35:12.449Z,77.19
2023-01-19T15:40:16.052Z,77.32
2023-01-19T15:45:27.784Z,77.56
2023-01-19T15:50:30.231Z,77.77
2023-01-19T15:55:32.036Z,77.78
2023-01-19T16:00:35.244Z,77.74
2023-01-19T16:05:43.007Z,77.52
2023-01-19T16:10:45.261Z,77.89
2023-01-19T16:15:47.290Z,77.78
2023-01-19T16:20:49.149Z,77.76
2023-01-19T16:26:04.794Z,78.16
2023-01-19T16:31:06.509Z,78.16
2023-01-19T16:36:27.842Z,78.53
2023-01-19T16:41:29.771Z,78.49
2023-01-19T16:46:36.908Z,78.56
2023-01-19T16:51:38.775Z,78.48
2023-01-19T16:56:41.524Z,78.90
2023-01-19T17:01:45.155Z,79.03
2023-01-19T17:06:47.456Z,78.99
2023-01-19T17:11:49.510Z,79.11
2023-01-19T17:16:51.678Z,79.19
2023-01-19T17:21:53.738Z,79.34
2023-01-19T17:26:55.699Z,79.24
2023-01-19T17:31:57.416Z,79.53
2023-01-19T17:37:03.082Z,79.82
2023-01-19T17:42:05.381Z,79.88
2023-01-19T17:47:07.056Z,80.06
2023-01-19T17:52:09.559Z,80.20
2023-01-19T17:57:11.268Z,80.15
2023-01-19T18:02:13.035Z,80.31
2023-01-19T18:07:14.922Z,80.13
2023-01-19T18:12:16.790Z,80.27
2023-01-19T18:17:18.933Z,80.56
2023-01-19T18:22:20.599Z,80.45
2023-01-19T18:27:23.038Z,80.32
2023-01-19T18:32:27.163Z,80.47
2023-01-19T18:37:29.262Z,80.34
2023-01-19T18:42:30.986Z,80.35
2023-01-19T18:47:33.855Z,80.44
2023-01-19T18:52:35.514Z,80.54
2023-01-19T18:57:37.522Z,80.29
2023-01-19T19:02:39.399Z,80.21
2023-01-19T19:07:41.343Z,80.34
2023-01-19T19:12:43.177Z,80.49
2023-01-19T19:17:44.838Z,80.30
2023-01-19T19:22:46.605Z,80.44
2023-01-19T19:27:52.425Z,80.57
2023-01-19T19:32:56.406Z,80.70
2023-01-19T19:37:58.642Z,80.59
2023-01-19T19:43:00.641Z,80.54
2023-01-19T19:48:02.336Z,80.46
2023-01-19T19:53:04.161Z,80.67
2023-01-19T19:58:05.821Z,80.84
2023-01-19T20:03:13.344Z,80.65
2023-01-19T20:08:15.482Z,80.56
2023-01-19T20:13:19.259Z,80.73
2023-01-19T20:18:20.893Z,80.76
2023-01-19T20:23:22.560Z,80.29
2023-01-19T20:28:25.068Z,80.55
2023-01-19T20:33:26.782Z,80.49
2023-01-19T20:38:28.643Z,80.21
2023-01-19T20:43:31.325Z,80.44
2023-01-19T20:48:33.326Z,80.44
2023-01-19T20:53:36.067Z,80.42
2023-01-19T20:58:38.734Z,80.24
2023-01-19T21:03:41.908Z,80.18
2023-01-19T21:08:43.571Z,80.01
2023-01-19T21:13:45.245Z,79.95
2023-01-19T21:18:47.101Z,79.71
2023-01-19T21:23:50.249Z,79.62
2023-01-19T21:28:51.900Z,79.52
2023-01-19T21:33:54.006Z,79.40
2023-01-19T21:39:00.473Z,79.54
2023-01-19T21:44:02.904Z,79.63
2023-01-19T21:49:06.892Z,79.73
2023-01-19T21:54:08.754Z,79.53
2023-01-19T21:59:15.170Z,79.38
2023-01-19T22:04:17.058Z,79.25
2023-01-19T22:09:19.320Z,79.28
2023-01-19T22:14:21.242Z,79.27
2023-01-19T22:19:23.070Z,79.06
2023-01-19T22:24:24.715Z,79.00
2023-01-19T22:29:26.657Z,78.98
2023-01-19T22:34:32.978Z,79.03
2023-01-19T22:39:35.382Z,78.69
2023-01-19T22:44:37.176Z,79.00
2023-01-19T22:49:38.895Z,78.82
2023-01-19T22:54:40.620Z,78.55
2023-01-19T22:59:43.674Z,78.36
2023-01-19T23:04:45.320Z,78.07
2023-01-19T23:09:47.032Z,78.10
2023-01-19T23:14:49.176Z,78.11
2023-01-19T23:19:50.955Z,77.92
2023-01-19T23:24:52.663Z,77.84
2023-01-19T23:29:54.517Z,77.85
2023-01-19T23:34:56.276Z,78.02
2023-01-19T23:39:57.921Z,78.02
2023-01-19T23:44:59.557Z,77.97
2023-01-19T23:50:03.462Z,78.17
2023-01-19T23:55:06.195Z,77.93
